0NV1 weather

Summerlin Medical Center Heliport
Las Vegas, Nevada, United States

Public forecast

Using degrees Fahrenheit for public forecast. Weather courtesy of forecast.io.

METAR (pilot weather report)

Closest report is North Las Vegas Airport, 5.3 nm (9.8 km) E. Retrieved 2019/03/26 09:53 UTC (35 minutes ago):

KVGT 260953Z AUTO 31004KT 10SM CLR 13/M01 A3000 RMK AO2 SLP165 T01281011

TAF (pilot weather forecast)

Closest forecast is North Las Vegas Airport, 5.3 nm (9.8 km) E. Retrieved 2019/03/26 06:22 UTC (4 hours ago):

TAF KVGT 260520Z 2606/2706 30005KT P6SM FEW250 FM261100 VRB06KT P6SM SCT250 FM261600 13005KT P6SM SCT250 FM262200 20012G18KT P6SM SCT250 FM270300 21008KT P6SM SCT250